Time;durP1;ratioP1;P1;durP2;ratioP2;P2;SDS_P1;SDS_P2;PMS_P1;PMS_P2;Temp;Humidity;BMP_temperature;BMP_pressure;BME280_temperature;BME280_humidity;BME280_pressure;Samples;Min_cycle;Max_cycle;Signal;HPM_P1;HPM_P2
2021/12/14 00:00:33;;;;;;;11.25;10.00;;;8.00;99.90;;;;;;5015713;28;20060;-59
2021/12/14 00:03:00;;;;;;;11.23;10.13;;;8.00;99.90;;;;;;5013650;28;20034;-58
2021/12/14 00:05:29;;;;;;;17.17;10.60;;;8.00;99.90;;;;;;5014433;28;20050;-59
2021/12/14 00:07:57;;;;;;;11.77;10.45;;;8.00;99.90;;;;;;5018170;28;20129;-60
2021/12/14 00:13:14;;;;;;;12.75;10.90;;;8.00;99.90;;;;;;5014045;28;20054;-58
2021/12/14 00:15:39;;;;;;;13.95;10.85;;;8.00;99.90;;;;;;5014205;28;20057;-58
2021/12/14 00:18:10;;;;;;;12.20;10.93;;;8.00;99.90;;;;;;5013360;28;20042;-59
2021/12/14 00:20:47;;;;;;;11.88;10.65;;;8.00;99.90;;;;;;5016879;28;20424;-58
2021/12/14 00:25:54;;;;;;;12.98;11.13;;;8.00;99.90;;;;;;5016282;28;20046;-59
2021/12/14 00:28:31;;;;;;;13.25;11.85;;;8.00;99.90;;;;;;5016094;28;20056;-59
2021/12/14 00:31:01;;;;;;;14.73;12.00;;;8.00;99.90;;;;;;5010750;28;20038;-58
2021/12/14 00:33:31;;;;;;;13.57;11.57;;;8.10;99.90;;;;;;5018950;28;20042;-59
2021/12/14 00:35:57;;;;;;;15.20;11.75;;;8.10;99.90;;;;;;5019336;28;20064;-59
2021/12/14 00:38:23;;;;;;;13.43;11.18;;;8.10;99.90;;;;;;5017218;28;20040;-59
2021/12/14 00:40:56;;;;;;;14.70;12.13;;;8.10;99.90;;;;;;5018670;28;20113;-58
2021/12/14 00:43:23;;;;;;;14.70;12.32;;;8.10;99.90;;;;;;5020066;28;20755;-58
2021/12/14 00:45:49;;;;;;;15.77;12.23;;;8.10;99.90;;;;;;5010850;28;20045;-58
2021/12/14 00:48:15;;;;;;;14.98;11.90;;;8.10;99.90;;;;;;5019554;28;20091;-60
2021/12/14 00:50:46;;;;;;;13.57;11.80;;;8.10;99.90;;;;;;5019829;28;20072;-59
2021/12/14 00:53:12;;;;;;;14.88;11.90;;;8.10;99.90;;;;;;5015255;28;20106;-59
2021/12/14 00:55:42;;;;;;;13.90;11.98;;;8.00;99.90;;;;;;5017997;28;20105;-58
2021/12/14 00:58:08;;;;;;;13.55;11.85;;;8.00;99.90;;;;;;5017821;28;20044;-60
2021/12/14 01:00:41;;;;;;;13.93;12.38;;;8.10;99.90;;;;;;5017430;28;20037;-59
2021/12/14 01:03:08;;;;;;;16.38;12.27;;;8.00;99.90;;;;;;5014399;28;20060;-59
2021/12/14 01:05:39;;;;;;;13.32;11.88;;;8.00;99.90;;;;;;5017050;28;20172;-57
2021/12/14 01:08:08;;;;;;;17.17;12.70;;;8.00;99.90;;;;;;5016993;28;20058;-59
2021/12/14 01:11:05;;;;;;;14.52;12.18;;;8.00;99.90;;;;;;5018024;28;20053;-59
2021/12/14 01:13:36;;;;;;;13.55;11.52;;;8.00;99.90;;;;;;5017624;28;20128;-59
2021/12/14 01:16:17;;;;;;;14.75;12.68;;;8.00;99.90;;;;;;5017255;28;20073;-59
2021/12/14 01:18:50;;;;;;;16.17;13.13;;;8.00;99.90;;;;;;5014199;28;20141;-60
2021/12/14 01:24:09;;;;;;;17.00;12.25;;;8.00;99.90;;;;;;5015121;28;20061;-58
2021/12/14 01:26:38;;;;;;;15.23;13.20;;;8.00;99.90;;;;;;5016815;28;20065;-59
2021/12/14 01:29:08;;;;;;;17.40;13.50;;;8.00;99.90;;;;;;5015099;28;20041;-59
2021/12/14 01:31:40;;;;;;;14.20;12.80;;;8.00;99.90;;;;;;5017383;28;20049;-58
2021/12/14 01:34:13;;;;;;;14.60;12.93;;;8.00;99.90;;;;;;5018702;28;20084;-60
2021/12/14 01:36:44;;;;;;;14.35;12.70;;;8.00;99.90;;;;;;5013890;28;20045;-59
2021/12/14 01:41:58;;;;;;;15.77;12.52;;;8.00;99.90;;;;;;5018976;28;20061;-58
2021/12/14 01:44:27;;;;;;;14.50;13.07;;;8.00;99.90;;;;;;5016248;28;20052;-59
2021/12/14 01:47:00;;;;;;;14.10;12.77;;;8.00;99.90;;;;;;5012598;28;20069;-58
2021/12/14 01:49:27;;;;;;;14.55;12.95;;;8.00;99.90;;;;;;5016799;28;20038;-59
2021/12/14 01:51:59;;;;;;;16.92;13.50;;;8.00;99.90;;;;;;5012918;28;20049;-59
2021/12/14 01:54:29;;;;;;;15.73;13.27;;;8.00;99.90;;;;;;5017026;28;20045;-59
2021/12/14 01:56:55;;;;;;;14.82;13.05;;;7.90;99.90;;;;;;5017848;28;20061;-59
2021/12/14 01:59:28;;;;;;;16.70;13.45;;;7.90;99.90;;;;;;4997674;28;20128;-58
2021/12/14 02:02:07;;;;;;;16.85;14.27;;;7.90;99.90;;;;;;5013606;28;20041;-58
2021/12/14 02:04:34;;;;;;;16.13;13.90;;;7.90;99.90;;;;;;5017503;28;20507;-59
2021/12/14 02:07:03;;;;;;;15.80;14.13;;;7.90;99.90;;;;;;5018345;28;20120;-59
2021/12/14 02:09:32;;;;;;;16.80;14.65;;;7.90;99.90;;;;;;5016071;28;20421;-58
2021/12/14 02:12:06;;;;;;;17.25;14.63;;;7.90;99.90;;;;;;5018152;28;20106;-59
2021/12/14 02:14:32;;;;;;;16.50;14.50;;;7.90;99.90;;;;;;5017981;28;20105;-59
2021/12/14 02:17:01;;;;;;;16.35;14.60;;;7.90;99.90;;;;;;5012381;28;20096;-59
2021/12/14 02:19:28;;;;;;;19.77;14.60;;;7.80;99.90;;;;;;5017091;28;20147;-59
2021/12/14 02:21:55;;;;;;;17.83;15.40;;;7.90;99.90;;;;;;5015164;28;20044;-58
2021/12/14 02:24:23;;;;;;;19.17;14.98;;;7.90;99.90;;;;;;5015329;28;20046;-59
2021/12/14 02:26:52;;;;;;;18.77;15.77;;;7.80;99.90;;;;;;5016912;28;20038;-60
2021/12/14 02:29:23;;;;;;;17.17;15.38;;;7.90;99.90;;;;;;5017410;28;20084;-59
2021/12/14 02:31:49;;;;;;;20.48;15.45;;;7.90;99.90;;;;;;5017352;28;20042;-59
2021/12/14 02:34:15;;;;;;;18.85;15.60;;;7.80;99.90;;;;;;5020179;28;20050;-59
2021/12/14 02:36:45;;;;;;;20.67;16.40;;;7.90;99.90;;;;;;5018317;28;20064;-59
2021/12/14 02:42:00;;;;;;;18.58;16.48;;;7.90;99.90;;;;;;5019285;28;20077;-59
2021/12/14 02:44:26;;;;;;;20.88;17.30;;;7.90;99.90;;;;;;5018379;28;20357;-60
2021/12/14 02:46:56;;;;;;;21.70;17.70;;;7.90;99.90;;;;;;5015627;28;20088;-58
2021/12/14 02:49:27;;;;;;;21.40;17.40;;;7.90;99.90;;;;;;5019384;28;20483;-59
2021/12/14 02:51:56;;;;;;;21.35;17.88;;;7.80;99.90;;;;;;5017380;28;20042;-59
2021/12/14 02:54:26;;;;;;;20.50;18.25;;;7.80;99.90;;;;;;5018075;28;20042;-59
2021/12/14 02:57:06;;;;;;;23.20;17.90;;;7.90;99.90;;;;;;5019651;28;20045;-59
2021/12/14 02:59:35;;;;;;;22.17;18.25;;;7.80;99.90;;;;;;5017773;28;20092;-59
2021/12/14 03:02:05;;;;;;;22.50;19.08;;;7.80;99.90;;;;;;5013536;28;20096;-59
2021/12/14 03:04:36;;;;;;;23.27;19.20;;;7.90;99.90;;;;;;5018830;28;20049;-59
2021/12/14 03:07:02;;;;;;;23.80;19.52;;;7.90;99.90;;;;;;5023103;28;20056;-59
2021/12/14 03:12:28;;;;;;;24.65;20.95;;;7.90;99.90;;;;;;5022561;28;20069;-57
2021/12/14 03:15:11;;;;;;;26.13;20.42;;;7.90;99.90;;;;;;5020831;28;20053;-59
2021/12/14 03:17:42;;;;;;;23.73;20.17;;;7.90;99.90;;;;;;5020208;28;20118;-58
2021/12/14 03:20:15;;;;;;;23.55;19.90;;;7.90;99.90;;;;;;5020087;28;20050;-58
2021/12/14 03:22:55;;;;;;;26.27;21.65;;;7.90;99.90;;;;;;5022153;28;20046;-59
2021/12/14 03:25:21;;;;;;;26.70;21.40;;;7.90;99.90;;;;;;5019165;28;20042;-58
2021/12/14 03:27:49;;;;;;;25.70;21.38;;;7.90;99.90;;;;;;5021151;28;20042;-57
2021/12/14 03:30:22;;;;;;;25.63;21.83;;;7.90;99.90;;;;;;5019496;28;20033;-59
2021/12/14 03:32:48;;;;;;;26.05;21.77;;;7.90;99.90;;;;;;5015526;28;20030;-56
2021/12/14 03:35:14;;;;;;;28.20;22.00;;;7.90;99.90;;;;;;5020795;28;20141;-58
2021/12/14 03:37:40;;;;;;;27.52;21.55;;;7.90;99.90;;;;;;5018582;28;20057;-58
2021/12/14 03:40:07;;;;;;;25.15;21.48;;;7.90;99.90;;;;;;5017146;28;20045;-59
2021/12/14 03:42:37;;;;;;;29.20;22.60;;;7.90;99.90;;;;;;5015412;28;20041;-58
2021/12/14 03:45:14;;;;;;;28.88;23.08;;;7.90;99.90;;;;;;5016081;28;20133;-58
2021/12/14 03:47:47;;;;;;;26.85;22.83;;;7.90;99.90;;;;;;5018227;28;20381;-58
2021/12/14 03:50:22;;;;;;;28.17;23.67;;;7.90;99.90;;;;;;5015182;28;20057;-58
2021/12/14 03:52:48;;;;;;;28.30;22.50;;;7.90;99.90;;;;;;5018311;28;20038;-59
2021/12/14 03:55:36;;;;;;;27.08;22.65;;;7.90;99.90;;;;;;5015539;28;20057;-57
2021/12/14 03:58:05;;;;;;;;;;;7.90;99.90;;;;;;5019727;28;20034;-58
2021/12/14 04:00:37;;;;;;;26.88;21.90;;;7.90;99.90;;;;;;5020218;28;19929;-58
2021/12/14 04:03:10;;;;;;;31.02;23.38;;;7.90;99.90;;;;;;5019807;28;20057;-57
2021/12/14 04:05:37;;;;;;;30.08;23.48;;;7.90;99.90;;;;;;5019218;28;20048;-59
2021/12/14 04:08:03;;;;;;;31.70;24.90;;;7.80;99.90;;;;;;5021745;28;20092;-57
2021/12/14 04:10:32;;;;;;;29.55;24.60;;;7.90;99.90;;;;;;5017406;28;20054;-59
2021/12/14 04:12:59;;;;;;;31.52;24.90;;;7.80;99.90;;;;;;5021637;28;20443;-57
2021/12/14 04:15:25;;;;;;;29.30;25.05;;;7.90;99.90;;;;;;5018627;28;20065;-57
2021/12/14 04:17:52;;;;;;;29.95;24.83;;;7.80;99.90;;;;;;5020733;28;20124;-58
2021/12/14 04:20:26;;;;;;;31.50;24.95;;;7.80;99.90;;;;;;5018309;28;20049;-57
2021/12/14 04:22:52;;;;;;;29.55;24.50;;;7.90;99.90;;;;;;5019988;28;20089;-59
2021/12/14 04:25:22;;;;;;;30.48;24.95;;;7.80;99.90;;;;;;5014115;28;20049;-59
2021/12/14 04:27:50;;;;;;;30.33;24.88;;;7.80;99.90;;;;;;5013594;28;20057;-59
2021/12/14 04:30:18;;;;;;;30.75;24.83;;;7.90;99.90;;;;;;5012767;28;20057;-58
2021/12/14 04:32:50;;;;;;;32.58;25.45;;;7.80;99.90;;;;;;5016760;28;20038;-57
2021/12/14 04:35:17;;;;;;;31.88;24.98;;;7.90;99.90;;;;;;5016704;28;20041;-58
2021/12/14 04:37:46;;;;;;;32.90;25.40;;;7.80;99.90;;;;;;5015573;28;20042;-58
2021/12/14 04:51:54;;;;;;;30.85;24.90;;;7.80;99.90;;;;;;5014189;28;20045;-58
2021/12/14 04:52:01;;;;;;;33.60;26.17;;;7.80;99.90;;;;;;5017389;28;20057;-58
2021/12/14 04:54:40;;;;;;;33.00;26.85;;;7.80;99.90;;;;;;4998215;28;20042;-58
2021/12/14 04:57:22;;;;;;;35.33;27.95;;;7.80;99.90;;;;;;5018799;28;20160;-58
2021/12/14 04:59:49;;;;;;;34.80;26.92;;;7.80;99.90;;;;;;5015425;28;20126;-58
2021/12/14 05:02:21;;;;;;;35.45;27.73;;;7.80;99.90;;;;;;5015069;28;20124;-58
2021/12/14 05:04:46;;;;;;;36.10;28.73;;;7.80;99.90;;;;;;5018828;28;20052;-58
2021/12/14 05:09:56;;;;;;;33.72;27.08;;;7.70;99.90;;;;;;5015543;28;20089;-58
2021/12/14 05:12:29;;;;;;;33.70;27.08;;;7.70;99.90;;;;;;5000004;28;20503;-58
2021/12/14 05:14:58;;;;;;;36.60;27.98;;;7.70;99.90;;;;;;5017268;28;21172;-58
2021/12/14 05:17:32;;;;;;;35.20;28.63;;;7.60;99.90;;;;;;5018585;28;20480;-57
2021/12/14 05:19:59;;;;;;;34.08;28.55;;;7.60;99.90;;;;;;5020632;28;20092;-56
2021/12/14 05:22:37;;;;;;;37.50;28.33;;;7.60;99.90;;;;;;5019307;28;20096;-57
2021/12/14 05:25:18;;;;;;;36.30;29.38;;;7.50;99.90;;;;;;5018334;28;20053;-57
2021/12/14 05:27:51;;;;;;;37.25;29.95;;;7.50;99.90;;;;;;5019126;28;20048;-58
2021/12/14 05:30:40;;;;;;;36.00;30.20;;;7.50;99.90;;;;;;5019502;28;20141;-57
2021/12/14 05:33:33;;;;;;;33.60;28.08;;;7.50;99.90;;;;;;5023579;28;20049;-57
2021/12/14 05:36:04;;;;;;;36.17;28.92;;;7.50;99.90;;;;;;5016869;28;20105;-58
2021/12/14 05:39:20;;;;;;;37.33;30.20;;;7.50;99.90;;;;;;5022535;28;20049;-57
2021/12/14 05:44:24;;;;;;;42.67;31.02;;;7.60;99.90;;;;;;5018926;28;20106;-58
2021/12/14 05:46:58;;;;;;;38.83;31.63;;;7.60;99.90;;;;;;5018987;28;20046;-58
2021/12/14 05:49:27;;;;;;;41.53;32.15;;;7.60;99.90;;;;;;5022201;28;20053;-58
2021/12/14 05:51:56;;;;;;;43.13;32.10;;;7.60;99.90;;;;;;5001495;28;20464;-58
2021/12/14 05:54:24;;;;;;;46.58;35.30;;;7.60;99.90;;;;;;5022047;28;20061;-58
2021/12/14 05:56:52;;;;;;;43.95;33.17;;;7.60;99.90;;;;;;5020140;28;20052;-58
2021/12/14 05:59:19;;;;;;;;;;;7.60;99.90;;;;;;5001249;28;20046;-58
2021/12/14 06:01:46;;;;;;;39.67;32.85;;;7.60;99.90;;;;;;5020189;28;20079;-58
2021/12/14 06:04:12;;;;;;;45.88;34.28;;;7.60;99.90;;;;;;5021293;28;20045;-58
2021/12/14 06:06:56;;;;;;;42.33;33.55;;;7.60;99.90;;;;;;5021236;28;20136;-58
2021/12/14 06:09:25;;;;;;;45.78;34.58;;;7.70;99.90;;;;;;5020378;28;20054;-58
2021/12/14 06:11:57;;;;;;;52.25;35.47;;;7.60;99.90;;;;;;5019957;28;20065;-58
2021/12/14 06:14:26;;;;;;;50.45;37.22;;;7.70;99.90;;;;;;5020413;28;20106;-58
2021/12/14 06:17:01;;;;;;;47.60;36.38;;;7.70;99.90;;;;;;5018707;28;20046;-57
2021/12/14 06:19:36;;;;;;;48.65;36.08;;;7.70;99.90;;;;;;5019937;28;20050;-58
2021/12/14 06:22:09;;;;;;;53.03;37.97;;;7.70;99.90;;;;;;5019266;28;20487;-58
2021/12/14 06:24:38;;;;;;;51.10;37.90;;;7.70;99.90;;;;;;5019639;28;20156;-59
2021/12/14 06:27:10;;;;;;;56.03;39.30;;;7.80;99.90;;;;;;5018412;28;20046;-58
2021/12/14 06:30:00;;;;;;;55.72;39.55;;;7.80;99.90;;;;;;5021000;28;20048;-58
2021/12/14 06:32:39;;;;;;;54.38;39.58;;;7.70;99.90;;;;;;5021373;28;20042;-58
2021/12/14 06:35:10;;;;;;;58.03;41.00;;;7.70;99.90;;;;;;5020496;28;20053;-58
2021/12/14 06:40:47;;;;;;;63.05;42.03;;;7.70;99.90;;;;;;5020663;28;20049;-58
2021/12/14 06:43:30;;;;;;;67.57;42.80;;;7.70;99.90;;;;;;5018672;28;20116;-58
2021/12/14 06:46:00;;;;;;;67.93;42.70;;;7.70;99.90;;;;;;5023621;28;20046;-58
2021/12/14 06:48:32;;;;;;;64.25;43.05;;;7.70;99.90;;;;;;5022703;28;20054;-58
2021/12/14 06:51:11;;;;;;;66.40;43.95;;;7.70;99.90;;;;;;5019224;28;20050;-59
2021/12/14 06:53:38;;;;;;;71.38;43.25;;;7.70;99.90;;;;;;5022992;28;20056;-59
2021/12/14 06:56:06;;;;;;;;;;;7.70;99.90;;;;;;5016453;28;20045;-58
2021/12/14 06:58:44;;;;;;;68.88;43.88;;;7.70;99.90;;;;;;5021546;28;19979;-58
2021/12/14 07:01:17;;;;;;;63.42;42.50;;;7.70;99.90;;;;;;5012325;28;20105;-58
2021/12/14 07:03:59;;;;;;;65.80;43.53;;;7.60;99.90;;;;;;5015807;28;20105;-58
2021/12/14 07:06:33;;;;;;;70.32;45.10;;;7.60;99.90;;;;;;5019096;28;20072;-57
2021/12/14 07:09:10;;;;;;;70.38;43.30;;;7.60;99.90;;;;;;5021272;28;20455;-58
2021/12/14 07:11:37;;;;;;;70.35;45.05;;;7.60;99.90;;;;;;5017312;28;20046;-58
2021/12/14 07:14:19;;;;;;;68.05;43.17;;;7.60;99.90;;;;;;5020768;28;20121;-58
2021/12/14 07:16:47;;;;;;;70.90;44.47;;;7.70;99.90;;;;;;5019057;28;20034;-58
2021/12/14 07:19:13;;;;;;;71.32;44.92;;;7.70;99.90;;;;;;5011616;28;20042;-58
2021/12/14 07:21:45;;;;;;;69.72;44.55;;;7.70;99.90;;;;;;5016914;28;20407;-58
2021/12/14 07:24:23;;;;;;;66.60;44.78;;;7.70;99.90;;;;;;5015189;28;20050;-58
2021/12/14 07:26:51;;;;;;;64.63;44.17;;;7.70;99.90;;;;;;5016720;28;20044;-59
2021/12/14 07:29:23;;;;;;;66.90;43.45;;;7.70;99.90;;;;;;5012770;28;20046;-59
2021/12/14 07:31:49;;;;;;;64.22;43.25;;;7.70;99.90;;;;;;5012909;28;20049;-58
2021/12/14 07:34:15;;;;;;;65.30;42.50;;;7.70;99.90;;;;;;5019404;28;20068;-58
2021/12/14 07:36:42;;;;;;;64.03;44.05;;;7.70;99.90;;;;;;5021940;28;20073;-57
2021/12/14 07:39:11;;;;;;;70.93;43.65;;;7.70;99.90;;;;;;5022220;28;20045;-58
2021/12/14 07:41:47;;;;;;;66.72;42.75;;;7.70;99.90;;;;;;5012891;28;20046;-59
2021/12/14 07:44:17;;;;;;;67.88;44.45;;;7.70;99.90;;;;;;5014714;28;20044;-59
2021/12/14 07:46:52;;;;;;;65.63;43.47;;;7.70;99.90;;;;;;5015767;28;20041;-58
2021/12/14 07:49:23;;;;;;;67.22;43.17;;;7.70;99.90;;;;;;5012084;28;20588;-59
2021/12/14 07:51:52;;;;;;;64.47;43.70;;;7.70;99.90;;;;;;5012199;28;20083;-58
2021/12/14 07:54:23;;;;;;;64.45;43.65;;;7.80;99.90;;;;;;5013283;28;20100;-58
2021/12/14 07:56:53;;;;;;;68.38;45.92;;;7.80;99.90;;;;;;5013734;28;20548;-58
2021/12/14 07:59:31;;;;;;;65.85;43.15;;;7.80;99.90;;;;;;5010347;28;20045;-60
2021/12/14 08:02:14;;;;;;;71.93;44.63;;;7.80;99.90;;;;;;5012672;28;20052;-58
2021/12/14 08:04:46;;;;;;;71.00;45.85;;;7.80;99.90;;;;;;5013830;28;20038;-58
2021/12/14 08:07:33;;;;;;;71.00;45.13;;;7.90;99.90;;;;;;5014998;28;20627;-58
2021/12/14 08:10:14;;;;;;;67.25;43.63;;;7.80;99.90;;;;;;5016132;28;20072;-58
2021/12/14 08:12:52;;;;;;;64.65;44.35;;;7.80;99.90;;;;;;5019501;28;20049;-58
2021/12/14 08:15:31;;;;;;;68.15;46.05;;;7.80;99.90;;;;;;5017210;28;20057;-59
2021/12/14 08:18:02;;;;;;;65.38;43.53;;;7.80;99.90;;;;;;5007852;28;20042;-58
2021/12/14 08:20:28;;;;;;;71.03;45.33;;;7.90;99.90;;;;;;5007966;28;20408;-59
2021/12/14 08:22:58;;;;;;;70.55;46.17;;;7.90;99.90;;;;;;5009626;28;20042;-58
2021/12/14 08:25:28;;;;;;;69.13;44.40;;;7.90;99.90;;;;;;5018515;28;20092;-58
2021/12/14 08:28:06;;;;;;;74.38;47.38;;;7.90;99.90;;;;;;5019877;28;20073;-56
2021/12/14 08:30:34;;;;;;;66.60;44.25;;;7.90;99.90;;;;;;5016163;28;20061;-57
2021/12/14 08:33:00;;;;;;;66.55;44.17;;;7.90;99.90;;;;;;5020448;28;20062;-57
2021/12/14 08:35:26;;;;;;;68.00;46.10;;;8.00;99.90;;;;;;5022347;28;20085;-57
2021/12/14 08:37:58;;;;;;;69.95;44.28;;;8.00;99.90;;;;;;5019747;28;20034;-58
2021/12/14 08:40:43;;;;;;;73.07;46.35;;;8.00;99.90;;;;;;5023795;28;20069;-58
2021/12/14 08:43:22;;;;;;;66.63;45.30;;;8.00;99.90;;;;;;5021815;28;20042;-57
2021/12/14 08:45:51;;;;;;;67.65;44.10;;;8.10;99.90;;;;;;5022245;28;20038;-58
2021/12/14 08:48:25;;;;;;;65.20;45.03;;;8.10;99.90;;;;;;5021945;28;20476;-58
2021/12/14 08:50:56;;;;;;;68.38;45.95;;;8.20;99.90;;;;;;5019939;28;20054;-57
2021/12/14 08:53:26;;;;;;;70.28;45.35;;;8.20;99.90;;;;;;5019520;28;20435;-58
2021/12/14 08:55:55;;;;;;;63.55;45.25;;;8.20;99.90;;;;;;5016632;28;20078;-57
2021/12/14 08:58:21;;;;;;;63.38;43.67;;;8.30;99.90;;;;;;5014274;28;20064;-58
2021/12/14 09:00:57;;;;;;;64.35;44.97;;;8.30;99.90;;;;;;5011610;28;20128;-57
2021/12/14 09:03:32;;;;;;;60.50;43.88;;;8.30;99.90;;;;;;5010326;28;20050;-56
2021/12/14 09:06:11;;;;;;;61.17;42.78;;;8.30;99.90;;;;;;5011169;28;20121;-58
2021/12/14 09:08:38;;;;;;;60.05;43.63;;;8.40;99.90;;;;;;5010784;28;20057;-57
2021/12/14 09:11:05;;;;;;;59.87;43.87;;;8.40;99.90;;;;;;5009686;28;20051;-57
2021/12/14 09:13:31;;;;;;;62.63;44.65;;;8.40;99.90;;;;;;5007045;28;20359;-58
2021/12/14 09:16:11;;;;;;;61.42;44.25;;;8.40;99.90;;;;;;5008475;28;20042;-59
2021/12/14 09:18:40;;;;;;;59.67;43.67;;;8.50;99.90;;;;;;5008008;28;20041;-59
2021/12/14 09:21:30;;;;;;;55.78;40.90;;;8.50;99.90;;;;;;5006904;28;20072;-59
2021/12/14 09:23:59;;;;;;;55.90;41.00;;;8.50;99.90;;;;;;5005626;28;20057;-58
2021/12/14 09:26:31;;;;;;;55.08;41.03;;;8.60;99.90;;;;;;5007525;28;20050;-59
2021/12/14 09:28:57;;;;;;;53.45;42.00;;;8.60;99.90;;;;;;5004656;28;20073;-58
2021/12/14 09:31:26;;;;;;;53.72;40.70;;;8.60;99.90;;;;;;5004998;28;20050;-59
2021/12/14 09:33:57;;;;;;;53.00;40.35;;;8.60;99.90;;;;;;4987486;28;20053;-58
2021/12/14 09:36:24;;;;;;;53.60;40.40;;;8.60;99.90;;;;;;4988014;28;20058;-58
2021/12/14 09:38:55;;;;;;;50.58;39.42;;;8.70;99.90;;;;;;5010493;28;20056;-58
2021/12/14 09:41:25;;;;;;;52.90;40.30;;;8.70;99.90;;;;;;5011518;28;20048;-57
2021/12/14 09:43:52;;;;;;;54.28;40.17;;;8.70;99.90;;;;;;5009710;28;20042;-58
2021/12/14 09:46:19;;;;;;;51.72;39.70;;;8.70;99.90;;;;;;5011555;28;20486;-57
2021/12/14 09:48:53;;;;;;;53.20;39.25;;;8.70;99.90;;;;;;5011792;28;20433;-58
2021/12/14 09:51:27;;;;;;;53.65;40.78;;;8.70;99.90;;;;;;5011991;28;20125;-59
2021/12/14 09:53:58;;;;;;;50.53;38.92;;;8.70;99.90;;;;;;5010431;28;20188;-58
2021/12/14 09:56:27;;;;;;;48.53;38.92;;;8.70;99.90;;;;;;5011174;28;20377;-58
2021/12/14 09:58:59;;;;;;;50.95;38.88;;;8.70;99.90;;;;;;5011675;28;20045;-58
2021/12/14 10:01:30;;;;;;;49.30;38.42;;;8.70;99.90;;;;;;5011368;28;20037;-58
2021/12/14 10:03:59;;;;;;;51.47;38.55;;;8.70;99.90;;;;;;5007746;28;20053;-59
2021/12/14 10:06:28;;;;;;;53.10;39.45;;;8.80;99.90;;;;;;5008729;28;20049;-58
2021/12/14 10:09:00;;;;;;;55.50;39.33;;;8.80;99.90;;;;;;5014293;28;20042;-58
2021/12/14 10:11:41;;;;;;;50.47;38.28;;;8.70;99.90;;;;;;5014104;28;20046;-58
2021/12/14 10:14:08;;;;;;;48.38;37.55;;;8.70;99.90;;;;;;5012980;28;20108;-58
2021/12/14 10:16:36;;;;;;;46.78;37.30;;;8.70;99.90;;;;;;5012497;28;20061;-58
2021/12/14 10:19:04;;;;;;;;;;;8.80;99.90;;;;;;5011703;28;20663;-58
2021/12/14 10:21:40;;;;;;;48.45;37.25;;;8.70;99.90;;;;;;5014616;28;19921;-58
2021/12/14 10:24:07;;;;;;;50.58;37.60;;;8.70;99.90;;;;;;5014393;28;20050;-58
2021/12/14 10:26:37;;;;;;;51.42;38.67;;;8.80;99.90;;;;;;5015328;28;20045;-57
2021/12/14 10:29:04;;;;;;;47.28;37.65;;;8.70;99.90;;;;;;5012713;28;20092;-58
2021/12/14 10:31:39;;;;;;;46.50;35.70;;;8.70;99.90;;;;;;5011517;28;20045;-59
2021/12/14 10:34:10;;;;;;;48.80;36.88;;;8.70;99.90;;;;;;5011008;28;20042;-58
2021/12/14 10:36:42;;;;;;;51.45;36.72;;;8.70;99.90;;;;;;5017604;28;20053;-58
2021/12/14 10:44:32;;;;;;;52.05;37.33;;;8.70;99.90;;;;;;5013743;28;20193;-57
2021/12/14 10:46:59;;;;;;;49.17;37.28;;;8.70;99.90;;;;;;5012273;28;20045;-58
2021/12/14 10:49:26;;;;;;;53.25;36.13;;;8.80;99.90;;;;;;5013629;28;20065;-59
2021/12/14 10:51:58;;;;;;;48.72;36.65;;;8.80;99.90;;;;;;5013194;28;20057;-58
2021/12/14 10:54:25;;;;;;;49.05;36.15;;;8.80;99.90;;;;;;5012734;28;20480;-58
2021/12/14 10:56:52;;;;;;;48.92;35.95;;;8.80;99.90;;;;;;5014967;28;20042;-59
2021/12/14 10:59:21;;;;;;;47.17;35.42;;;8.70;99.90;;;;;;5014595;28;20034;-58
2021/12/14 11:01:50;;;;;;;54.47;37.30;;;8.70;99.90;;;;;;5014402;28;20088;-59
2021/12/14 11:04:25;;;;;;;50.80;36.50;;;8.70;99.90;;;;;;5012853;28;20530;-58
2021/12/14 11:06:52;;;;;;;49.85;36.67;;;8.70;99.90;;;;;;5015148;28;20100;-58
2021/12/14 11:09:42;;;;;;;47.80;35.55;;;8.80;99.90;;;;;;5015728;28;20042;-58
2021/12/14 11:12:27;;;;;;;50.13;36.58;;;8.80;99.90;;;;;;5014070;28;20061;-59
2021/12/14 11:14:59;;;;;;;51.90;35.88;;;8.80;99.90;;;;;;5015162;28;20042;-57
2021/12/14 11:20:22;;;;;;;55.50;37.97;;;8.80;99.90;;;;;;5015823;28;20077;-57
2021/12/14 11:22:56;;;;;;;57.83;38.85;;;8.90;99.90;;;;;;5013258;28;20041;-58
2021/12/14 11:25:25;;;;;;;53.22;38.08;;;8.90;99.90;;;;;;5009000;28;20046;-58
2021/12/14 11:28:13;;;;;;;52.78;38.55;;;8.90;99.90;;;;;;5016634;28;20128;-58
2021/12/14 11:30:45;;;;;;;53.72;37.78;;;8.90;99.90;;;;;;5017341;28;20042;-58
2021/12/14 11:33:30;;;;;;;58.95;38.95;;;9.00;99.90;;;;;;5015030;28;20050;-57
2021/12/14 11:35:59;;;;;;;59.67;39.53;;;9.00;99.90;;;;;;5016378;28;20062;-58
2021/12/14 11:38:30;;;;;;;62.15;39.90;;;9.00;99.90;;;;;;5017533;28;20060;-58
2021/12/14 11:40:59;;;;;;;58.92;39.13;;;9.00;99.90;;;;;;5011671;28;20038;-58
2021/12/14 11:43:27;;;;;;;61.72;40.33;;;9.00;99.90;;;;;;5017268;28;20037;-58
2021/12/14 11:45:52;;;;;;;62.28;40.40;;;9.00;99.90;;;;;;5000413;28;20061;-58
2021/12/14 11:48:31;;;;;;;65.03;40.85;;;9.00;99.90;;;;;;5015666;28;20038;-59
2021/12/14 11:50:58;;;;;;;59.88;38.67;;;9.00;99.90;;;;;;5019440;28;20045;-58
2021/12/14 11:53:24;;;;;;;64.45;40.78;;;9.00;99.90;;;;;;5018930;28;20100;-58
2021/12/14 11:55:50;;;;;;;61.28;40.55;;;9.00;99.90;;;;;;5016194;28;20108;-59
2021/12/14 11:58:30;;;;;;;59.22;40.20;;;9.00;99.90;;;;;;5015382;28;20046;-58
2021/12/14 12:01:05;;;;;;;64.40;40.13;;;9.00;99.90;;;;;;5016587;28;20042;-58
2021/12/14 12:03:39;;;;;;;64.50;40.45;;;9.00;99.90;;;;;;5016698;28;20056;-58
2021/12/14 12:06:33;;;;;;;65.78;40.22;;;9.00;99.90;;;;;;5016563;28;20407;-58
2021/12/14 12:11:52;;;;;;;65.75;39.40;;;9.00;99.90;;;;;;4992445;28;20415;-58
2021/12/14 12:14:26;;;;;;;61.67;40.00;;;9.00;99.90;;;;;;5015973;28;20050;-58
2021/12/14 12:16:55;;;;;;;62.33;39.78;;;9.00;99.90;;;;;;5014297;28;20057;-58
2021/12/14 12:19:25;;;;;;;61.70;38.28;;;9.00;99.90;;;;;;5002836;28;20042;-58
2021/12/14 12:21:52;;;;;;;56.97;37.60;;;9.00;99.90;;;;;;5014745;28;20069;-57
2021/12/14 12:24:37;;;;;;;58.47;38.08;;;9.00;99.90;;;;;;5015575;28;20487;-58
2021/12/14 12:27:44;;;;;;;57.65;37.88;;;9.00;99.90;;;;;;5015574;28;20512;-58
2021/12/14 12:30:22;;;;;;;53.40;36.53;;;9.00;99.90;;;;;;4935656;29;20052;-58
2021/12/14 12:32:47;;;;;;;;;;;9.00;99.90;;;;;;4934859;29;20123;-58
2021/12/14 12:35:24;;;;;;;61.42;37.10;;;9.00;99.90;;;;;;4935512;29;19926;-58
2021/12/14 12:37:50;;;;;;;55.67;35.90;;;9.00;99.90;;;;;;4935202;29;20056;-59
2021/12/14 12:40:30;;;;;;;53.45;35.05;;;9.00;99.90;;;;;;4936099;29;20079;-57
2021/12/14 12:43:23;;;;;;;53.88;33.55;;;9.00;99.90;;;;;;4933905;29;20076;-58
2021/12/14 12:46:03;;;;;;;65.45;36.50;;;9.00;99.90;;;;;;4934071;29;20052;-58
2021/12/14 12:48:52;;;;;;;49.63;31.80;;;8.90;99.90;;;;;;4935233;29;20071;-58
2021/12/14 12:51:53;;;;;;;53.92;33.55;;;8.90;99.90;;;;;;4936284;29;20458;-58
2021/12/14 12:54:41;;;;;;;54.20;33.17;;;8.90;99.90;;;;;;4937580;29;20052;-58
2021/12/14 12:57:27;;;;;;;51.03;31.30;;;8.90;99.90;;;;;;4938404;29;20052;-58
2021/12/14 12:59:59;;;;;;;47.30;30.45;;;8.90;99.90;;;;;;4939197;29;20040;-58
2021/12/14 13:02:30;;;;;;;51.55;31.80;;;8.90;99.90;;;;;;4937582;29;20055;-58
2021/12/14 13:05:05;;;;;;;44.50;30.20;;;8.80;99.90;;;;;;5004318;28;20188;-58
2021/12/14 13:07:40;;;;;;;47.22;29.80;;;8.90;99.90;;;;;;5016349;28;20046;-57
2021/12/14 13:10:24;;;;;;;51.08;30.95;;;8.80;99.90;;;;;;5017556;28;20034;-58
2021/12/14 13:12:52;;;;;;;47.33;30.20;;;8.90;99.90;;;;;;5015497;28;20113;-58
2021/12/14 13:15:26;;;;;;;;;;;8.90;99.90;;;;;;5014968;28;20420;-58
2021/12/14 13:18:19;;;;;;;45.88;28.33;;;8.90;99.90;;;;;;5014441;28;19921;-58
2021/12/14 13:20:47;;;;;;;39.78;26.95;;;8.90;99.90;;;;;;5017686;28;20089;-57
2021/12/14 13:23:13;;;;;;;41.95;26.55;;;8.80;99.90;;;;;;5016960;28;20045;-58
2021/12/14 13:25:42;;;;;;;38.40;25.80;;;8.80;99.90;;;;;;5016984;28;20485;-58
2021/12/14 13:28:09;;;;;;;38.63;26.05;;;8.90;99.90;;;;;;5013586;28;20038;-56
2021/12/14 13:30:35;;;;;;;42.80;27.38;;;8.90;99.90;;;;;;5016321;28;20049;-57
2021/12/14 13:33:01;;;;;;;45.42;26.55;;;8.90;99.90;;;;;;5017267;28;20034;-58
2021/12/14 13:35:32;;;;;;;43.30;26.77;;;8.90;99.90;;;;;;5016855;28;20053;-58
2021/12/14 13:38:06;;;;;;;42.42;26.17;;;8.90;99.90;;;;;;5014568;28;20042;-58
2021/12/14 13:40:36;;;;;;;39.70;25.85;;;8.90;99.90;;;;;;5016895;28;20042;-58
2021/12/14 13:43:10;;;;;;;43.45;26.38;;;8.90;99.90;;;;;;5017110;28;20034;-58
2021/12/14 13:45:57;;;;;;;42.90;25.83;;;8.90;99.90;;;;;;5018705;28;20153;-58
2021/12/14 13:48:38;;;;;;;40.42;26.33;;;8.90;99.90;;;;;;5016390;28;20058;-58